Time;durP1;ratioP1;P1;durP2;ratioP2;P2;SDS_P1;SDS_P2;PMS_P1;PMS_P2;Temp;Humidity;BMP_temperature;BMP_pressure;BME280_temperature;BME280_humidity;BME280_pressure;Samples;Min_cycle;Max_cycle;Signal;HPM_P1;HPM_P2
2021/10/02 00:37:20;;;;;;;;;;;;;;;20.70;57.02;102017.13;4993236;28;1526;-58
2021/10/02 00:45:15;;;;;;;;;;;;;;;20.64;57.69;101998.75;5038305;28;1511;-63
2021/10/02 00:47:42;;;;;;;;;;;;;;;20.64;56.77;101983.50;5037092;28;1909;-63
2021/10/02 00:50:09;;;;;;;;;;;;;;;20.64;57.49;101982.63;5031063;28;1596;-58
2021/10/02 00:52:37;;;;;;;;;;;;;;;20.64;56.86;101988.88;5045090;28;1585;-57
2021/10/02 00:55:04;;;;;;;;;;;;;;;20.65;57.53;101982.53;5016924;28;1065;-58
2021/10/02 00:57:30;;;;;;;;;;;;;;;20.64;57.71;101988.00;5045721;28;1479;-63
2021/10/02 00:59:57;;;;;;;;;;;;;;;20.62;57.62;101985.44;5046708;28;1988;-59
2021/10/02 01:02:25;;;;;;;;;;;;;;;20.62;57.83;101984.59;5026294;28;1468;-58
2021/10/02 01:05:07;;;;;;;;;;;;;;;20.63;56.91;101978.22;5038382;28;1529;-63
2021/10/02 01:07:36;;;;;;;;;;;;;;;20.64;57.13;101991.56;5054267;28;1977;-63
2021/10/02 01:10:20;;;;;;;;;;;;;;;20.63;56.84;101992.53;5047374;28;1056;-63
2021/10/02 01:12:54;;;;;;;;;;;;;;;20.63;57.48;101973.72;5047256;28;1002;-58
2021/10/02 01:15:25;;;;;;;;;;;;;;;20.62;57.50;101993.50;5025044;28;994;-58
2021/10/02 01:17:54;;;;;;;;;;;;;;;20.63;57.51;101980.91;5033920;28;1708;-63
2021/10/02 01:20:28;;;;;;;;;;;;;;;20.61;56.82;101986.44;5028588;28;1561;-58
2021/10/02 01:22:56;;;;;;;;;;;;;;;20.64;57.66;101979.94;5044979;28;1451;-58
2021/10/02 01:25:38;;;;;;;;;;;;;;;20.62;57.36;101982.75;5044546;28;1683;-63
2021/10/02 01:28:08;;;;;;;;;;;;;;;20.60;56.84;101979.31;5016521;28;1906;-63
2021/10/02 01:30:50;;;;;;;;;;;;;;;20.60;56.50;101989.22;5025037;28;1479;-58
2021/10/02 01:33:23;;;;;;;;;;;;;;;20.62;56.77;101992.66;5024713;28;1588;-58
2021/10/02 01:35:55;;;;;;;;;;;;;;;20.59;57.60;101992.88;5027273;28;1027;-58
2021/10/02 01:49:24;;;;;;;;;;;;;;;20.57;56.77;101990.28;5036482;28;1576;-58
2021/10/02 01:51:51;;;;;;;;;;;;;;;20.57;56.46;101997.47;5016271;28;1070;-63
2021/10/02 01:54:19;;;;;;;;;;;;;;;20.57;57.24;102001.03;5021813;28;1712;-58
2021/10/02 01:56:47;;;;;;;;;;;;;;;20.56;56.70;101995.78;5025814;28;1648;-58
2021/10/02 01:59:16;;;;;;;;;;;;;;;20.59;56.39;101987.50;5025827;28;1537;-58
2021/10/02 02:01:44;;;;;;;;;;;;;;;20.55;57.05;101981.50;5029781;28;1535;-63
2021/10/02 02:04:12;;;;;;;;;;;;;;;20.55;56.51;101988.66;5043304;28;1385;-58
2021/10/02 02:06:39;;;;;;;;;;;;;;;20.57;57.30;101984.91;5044351;28;1906;-63
2021/10/02 02:09:07;;;;;;;;;;;;;;;20.60;57.37;101995.44;5029457;28;1735;-63
2021/10/02 02:11:35;;;;;;;;;;;;;;;20.55;56.84;101992.22;5025506;28;1644;-58
2021/10/02 02:14:02;;;;;;;;;;;;;;;20.58;57.30;101985.75;5031722;28;1577;-58
2021/10/02 02:16:32;;;;;;;;;;;;;;;20.54;57.60;101995.88;5043249;28;981;-57
2021/10/02 02:18:58;;;;;;;;;;;;;;;20.53;56.60;101972.69;5024125;28;1475;-58
2021/10/02 02:21:26;;;;;;;;;;;;;;;20.54;57.05;101979.75;5040745;28;1203;-58
2021/10/02 02:23:52;;;;;;;;;;;;;;;20.54;57.20;101995.88;5042332;28;1597;-58
2021/10/02 02:26:19;;;;;;;;;;;;;;;20.53;57.37;101983.44;5041064;28;1056;-63
2021/10/02 02:28:46;;;;;;;;;;;;;;;20.54;56.20;101987.81;5043421;28;1902;-62
2021/10/02 02:31:13;;;;;;;;;;;;;;;20.55;57.50;101991.34;5030661;28;1628;-63
2021/10/02 02:33:41;;;;;;;;;;;;;;;20.54;57.43;101995.88;5034943;28;1569;-58
2021/10/02 02:36:08;;;;;;;;;;;;;;;20.53;57.55;101986.13;5043140;28;1494;-58
2021/10/02 02:38:34;;;;;;;;;;;;;;;20.53;56.17;101983.44;5041515;28;1636;-63
2021/10/02 02:41:02;;;;;;;;;;;;;;;20.52;56.89;101987.06;5024266;28;990;-63
2021/10/02 02:43:32;;;;;;;;;;;;;;;20.52;56.17;101975.47;5044851;28;1771;-63
2021/10/02 02:46:03;;;;;;;;;;;;;;;20.50;56.13;101989.03;5028271;28;1720;-58
2021/10/02 02:48:32;;;;;;;;;;;;;;;20.50;56.29;101974.75;5041393;28;1906;-63
2021/10/02 02:51:03;;;;;;;;;;;;;;;20.48;56.13;101977.53;5024568;28;1580;-63
2021/10/02 02:53:34;;;;;;;;;;;;;;;20.52;56.33;101991.59;5027578;28;1451;-63
2021/10/02 02:56:04;;;;;;;;;;;;;;;20.49;56.41;101981.91;5017184;28;1519;-63
2021/10/02 02:58:31;;;;;;;;;;;;;;;20.48;56.16;101974.00;5025379;28;1515;-58
2021/10/02 03:01:00;;;;;;;;;;;;;;;20.50;56.50;101977.44;5026153;28;1404;-63
2021/10/02 03:03:28;;;;;;;;;;;;;;;20.50;57.33;101989.03;5042755;28;1565;-58
2021/10/02 03:05:55;;;;;;;;;;;;;;;20.50;56.27;101989.03;5042194;28;1027;-58
2021/10/02 03:08:25;;;;;;;;;;;;;;;20.48;56.48;101980.22;5044232;28;1975;-58
2021/10/02 03:10:53;;;;;;;;;;;;;;;20.49;56.07;101978.38;5027835;28;1593;-58
2021/10/02 03:13:23;;;;;;;;;;;;;;;20.48;57.18;101985.59;5040464;28;1562;-58
2021/10/02 03:15:50;;;;;;;;;;;;;;;20.44;56.46;101992.19;5023686;28;995;-63
2021/10/02 03:18:18;;;;;;;;;;;;;;;20.48;57.23;101999.03;5028786;28;1712;-63
2021/10/02 03:20:49;;;;;;;;;;;;;;;20.46;56.42;101980.34;5037834;28;1555;-63
2021/10/02 03:23:18;;;;;;;;;;;;;;;20.50;56.45;101988.19;5024852;28;1574;-58
2021/10/02 03:25:46;;;;;;;;;;;;;;;20.48;56.05;101982.06;5029539;28;1314;-63
2021/10/02 03:28:13;;;;;;;;;;;;;;;20.47;55.95;101967.75;5040837;28;1980;-63
2021/10/02 03:30:40;;;;;;;;;;;;;;;20.48;56.26;101984.75;5024543;28;1641;-63
2021/10/02 03:33:07;;;;;;;;;;;;;;;20.48;56.89;101982.91;5045232;28;985;-58
2021/10/02 03:35:34;;;;;;;;;;;;;;;20.46;56.50;101982.16;5025380;28;1494;-58
2021/10/02 03:38:01;;;;;;;;;;;;;;;20.49;56.24;101981.06;5019092;28;1668;-57
2021/10/02 03:40:27;;;;;;;;;;;;;;;20.52;56.90;101988.91;5042772;28;1621;-58
2021/10/02 03:42:56;;;;;;;;;;;;;;;20.48;56.95;101969.47;5040306;28;1316;-63
2021/10/02 03:45:23;;;;;;;;;;;;;;;20.52;57.16;101984.38;5045271;28;1056;-58
2021/10/02 03:47:50;;;;;;;;;;;;;;;20.49;57.04;101979.22;5044511;28;1910;-63
2021/10/02 03:50:17;;;;;;;;;;;;;;;20.48;56.77;101974.84;5044114;28;1520;-63
2021/10/02 03:52:43;;;;;;;;;;;;;;;20.49;56.79;101964.94;5036039;28;1628;-58
2021/10/02 03:55:11;;;;;;;;;;;;;;;20.43;56.89;101963.59;5026936;28;1059;-63
2021/10/02 03:57:38;;;;;;;;;;;;;;;20.44;57.28;101987.66;5029493;28;1620;-63
2021/10/02 04:00:07;;;;;;;;;;;;;;;20.42;56.53;101986.06;5046460;28;1435;-58
2021/10/02 04:02:33;;;;;;;;;;;;;;;20.47;56.21;101981.19;5025975;28;1870;-59
2021/10/02 04:05:00;;;;;;;;;;;;;;;20.42;56.87;101975.31;5027506;28;1580;-62
2021/10/02 04:07:27;;;;;;;;;;;;;;;20.46;56.01;101976.78;5041812;28;1974;-63
2021/10/02 04:09:53;;;;;;;;;;;;;;;20.43;56.92;101971.63;5035504;28;1974;-59
2021/10/02 04:12:20;;;;;;;;;;;;;;;20.47;56.83;101981.19;5024304;28;1060;-58
2021/10/02 04:14:48;;;;;;;;;;;;;;;20.46;56.98;101971.41;5038588;28;1864;-59
2021/10/02 04:17:16;;;;;;;;;;;;;;;20.44;56.23;101968.00;5054760;28;1698;-63
2021/10/02 04:19:43;;;;;;;;;;;;;;;20.42;56.27;101986.06;5044343;28;1568;-63
2021/10/02 04:22:09;;;;;;;;;;;;;;;20.43;56.23;101977.91;5029535;28;982;-63
2021/10/02 04:24:36;;;;;;;;;;;;;;;20.42;56.62;101964.56;5028140;28;1816;-58
2021/10/02 04:27:03;;;;;;;;;;;;;;;20.42;56.29;101989.59;5017829;28;1601;-58
2021/10/02 04:29:30;;;;;;;;;;;;;;;20.49;56.15;102008.78;5026205;28;1902;-63
2021/10/02 04:31:57;;;;;;;;;;;;;;;20.47;56.16;101991.94;5047694;28;1583;-63
2021/10/02 04:34:25;;;;;;;;;;;;;;;20.47;56.14;101994.63;5048009;28;1691;-63
2021/10/02 04:36:52;;;;;;;;;;;;;;;20.44;56.19;101984.13;5030435;28;1734;-63
2021/10/02 04:39:18;;;;;;;;;;;;;;;20.43;56.05;101983.28;5038370;28;1487;-58
2021/10/02 04:41:45;;;;;;;;;;;;;;;20.43;56.26;101990.44;5040516;28;1572;-63
2021/10/02 04:44:11;;;;;;;;;;;;;;;20.43;56.95;101993.13;5027320;28;1565;-58
2021/10/02 04:46:38;;;;;;;;;;;;;;;20.49;56.90;101998.03;5025913;28;1428;-63
2021/10/02 04:49:07;;;;;;;;;;;;;;;20.48;56.48;101995.50;5028252;28;1972;-63
2021/10/02 04:51:35;;;;;;;;;;;;;;;20.44;56.98;101995.72;5022541;28;1989;-58
2021/10/02 04:54:01;;;;;;;;;;;;;;;20.41;55.92;101995.06;5021959;28;1587;-63
2021/10/02 04:56:28;;;;;;;;;;;;;;;20.44;56.17;101995.72;5035248;28;1875;-58
2021/10/02 04:58:55;;;;;;;;;;;;;;;20.42;57.24;101989.59;5039355;28;1571;-58
2021/10/02 05:01:21;;;;;;;;;;;;;;;20.04;54.69;101990.63;5036082;28;1404;-63
2021/10/02 05:03:48;;;;;;;;;;;;;;;20.27;56.84;102004.16;5042101;28;1472;-63
2021/10/02 05:06:15;;;;;;;;;;;;;;;20.37;56.66;102015.09;5037080;28;966;-58
2021/10/02 05:08:43;;;;;;;;;;;;;;;20.39;56.22;101999.72;5038531;28;1973;-63
2021/10/02 05:11:09;;;;;;;;;;;;;;;20.37;56.99;101990.91;5038960;28;1659;-58
2021/10/02 05:13:36;;;;;;;;;;;;;;;20.37;56.28;101982.84;5033155;28;1632;-63
2021/10/02 05:16:03;;;;;;;;;;;;;;;20.43;56.05;101993.13;5045566;28;1052;-58
2021/10/02 05:18:30;;;;;;;;;;;;;;;20.43;55.70;102001.19;5029738;28;1704;-58
2021/10/02 05:20:57;;;;;;;;;;;;;;;20.42;55.71;101992.28;5026355;28;1624;-63
2021/10/02 05:23:25;;;;;;;;;;;;;;;20.43;55.64;101990.44;5025664;28;1638;-61
2021/10/02 05:25:54;;;;;;;;;;;;;;;20.40;56.67;101988.84;5030304;28;1636;-63
2021/10/02 05:28:21;;;;;;;;;;;;;;;20.42;56.16;101988.75;5044835;28;1914;-63
2021/10/02 05:30:47;;;;;;;;;;;;;;;20.45;56.35;101997.44;5044420;28;1455;-57
2021/10/02 05:33:14;;;;;;;;;;;;;;;20.45;55.79;102002.81;5037734;28;1260;-63
2021/10/02 05:35:40;;;;;;;;;;;;;;;20.49;56.22;101995.34;5047479;28;961;-63
2021/10/02 05:38:07;;;;;;;;;;;;;;;20.46;56.20;102003.66;5037347;28;1878;-58
2021/10/02 05:40:33;;;;;;;;;;;;;;;20.50;55.95;102005.16;5036215;28;1425;-62
2021/10/02 05:43:02;;;;;;;;;;;;;;;20.52;56.47;101997.81;5025404;28;1384;-58
2021/10/02 05:45:29;;;;;;;;;;;;;;;20.51;56.68;101998.78;5046829;28;1060;-63
2021/10/02 05:47:56;;;;;;;;;;;;;;;20.49;55.59;101995.34;5046879;28;1979;-62
2021/10/02 05:50:22;;;;;;;;;;;;;;;20.54;55.90;101995.88;5028902;28;1574;-63
2021/10/02 05:52:49;;;;;;;;;;;;;;;20.57;56.26;102003.72;5017665;28;1681;-62
2021/10/02 05:55:16;;;;;;;;;;;;;;;20.63;56.55;102005.97;5046110;28;1972;-58
2021/10/02 05:57:42;;;;;;;;;;;;;;;20.61;56.72;101996.28;5015880;28;1047;-63
2021/10/02 06:00:11;;;;;;;;;;;;;;;20.60;56.73;102014.25;5022001;28;1732;-58
2021/10/02 06:02:38;;;;;;;;;;;;;;;20.60;56.48;102008.03;5028883;28;1724;-58
2021/10/02 06:05:05;;;;;;;;;;;;;;;20.57;56.67;102009.09;5021230;28;1539;-63
2021/10/02 06:07:32;;;;;;;;;;;;;;;20.59;56.16;102003.63;5033859;28;1883;-58
2021/10/02 06:09:58;;;;;;;;;;;;;;;20.58;56.14;102008.13;5023606;28;1907;-63
2021/10/02 06:12:25;;;;;;;;;;;;;;;20.59;55.86;102014.38;5045333;28;1396;-57
2021/10/02 06:14:51;;;;;;;;;;;;;;;20.63;56.49;102015.84;5028209;28;1546;-63
2021/10/02 06:17:19;;;;;;;;;;;;;;;20.59;56.05;102009.88;5017336;28;1636;-63
2021/10/02 06:19:46;;;;;;;;;;;;;;;20.57;55.95;102017.16;5024102;28;1573;-63
2021/10/02 06:22:12;;;;;;;;;;;;;;;20.60;56.95;102018.78;5024277;28;1048;-63
2021/10/02 06:24:39;;;;;;;;;;;;;;;20.58;55.92;102024.25;5023166;28;1720;-58
2021/10/02 06:27:06;;;;;;;;;;;;;;;20.61;55.57;102018.69;5020600;28;1661;-62
2021/10/02 06:29:33;;;;;;;;;;;;;;;20.64;56.71;102029.19;5040197;28;1938;-63
2021/10/02 06:32:00;;;;;;;;;;;;;;;20.63;56.48;102027.47;5031610;28;1555;-63
2021/10/02 06:34:28;;;;;;;;;;;;;;;20.60;55.92;102011.56;5022042;28;1580;-63
2021/10/02 06:36:54;;;;;;;;;;;;;;;20.66;56.09;102037.13;5028173;28;1028;-63
2021/10/02 06:39:21;;;;;;;;;;;;;;;20.63;55.79;102024.78;5029001;28;1880;-63
2021/10/02 06:41:48;;;;;;;;;;;;;;;20.64;56.84;102029.19;5037453;28;1592;-63
2021/10/02 06:44:14;;;;;;;;;;;;;;;20.68;55.79;102027.13;5033469;28;1659;-63
2021/10/02 06:46:41;;;;;;;;;;;;;;;20.69;56.53;102027.97;5024593;28;1592;-63
2021/10/02 06:49:08;;;;;;;;;;;;;;;20.71;56.89;102029.59;5028022;28;1910;-58
2021/10/02 06:51:36;;;;;;;;;;;;;;;20.71;56.24;102024.22;5043743;28;1044;-58
2021/10/02 06:54:02;;;;;;;;;;;;;;;20.78;55.91;102029.97;5039524;28;1551;-60
2021/10/02 06:56:29;;;;;;;;;;;;;;;20.75;56.32;102019.44;5043519;28;1573;-61
2021/10/02 06:58:55;;;;;;;;;;;;;;;20.76;56.74;102023.84;5042478;28;1483;-63
2021/10/02 07:01:22;;;;;;;;;;;;;;;20.81;56.37;102003.72;5031780;28;1576;-58
2021/10/02 07:03:48;;;;;;;;;;;;;;;20.80;56.53;102003.84;5035652;28;1627;-63
2021/10/02 07:06:15;;;;;;;;;;;;;;;20.85;56.43;102004.34;5025894;28;1056;-63
2021/10/02 07:08:43;;;;;;;;;;;;;;;20.90;55.77;102007.53;5026986;28;1907;-63
2021/10/02 07:11:10;;;;;;;;;;;;;;;20.89;56.34;102003.13;5028324;28;1608;-63
2021/10/02 07:13:36;;;;;;;;;;;;;;;20.87;56.08;102007.78;5039857;28;1467;-58
2021/10/02 07:16:03;;;;;;;;;;;;;;;20.88;56.66;102009.47;5026191;28;1058;-63
2021/10/02 07:18:29;;;;;;;;;;;;;;;20.89;55.60;102000.44;5039353;28;1520;-63
2021/10/02 07:20:56;;;;;;;;;;;;;;;20.88;55.97;101982.59;5042637;28;1518;-63
2021/10/02 07:23:24;;;;;;;;;;;;;;;20.90;56.54;101999.47;5038132;28;1436;-58
2021/10/02 07:25:53;;;;;;;;;;;;;;;20.89;56.20;102003.13;5023534;28;1577;-63
2021/10/02 07:28:20;;;;;;;;;;;;;;;20.95;55.86;102009.84;5028329;28;1914;-63
2021/10/02 07:30:46;;;;;;;;;;;;;;;20.91;56.91;102009.25;5028264;28;1573;-63
2021/10/02 07:33:13;;;;;;;;;;;;;;;20.93;56.86;101995.66;5045397;28;1020;-63
2021/10/02 07:35:40;;;;;;;;;;;;;;;20.91;57.09;102014.63;5051353;28;1523;-62
2021/10/02 07:38:06;;;;;;;;;;;;;;;20.92;56.51;101997.50;5043267;28;981;-63
2021/10/02 07:40:33;;;;;;;;;;;;;;;20.96;56.07;101996.28;5047952;28;1617;-63
2021/10/02 07:43:03;;;;;;;;;;;;;;;20.93;56.55;102001.94;5046682;28;1700;-63
2021/10/02 07:45:32;;;;;;;;;;;;;;;20.97;57.03;101998.03;5031013;28;1588;-63
2021/10/02 07:47:59;;;;;;;;;;;;;;;20.96;56.94;101998.97;5039953;28;1487;-63
2021/10/02 07:50:26;;;;;;;;;;;;;;;20.97;57.08;101991.75;5037339;28;1906;-58
2021/10/02 07:52:54;;;;;;;;;;;;;;;20.97;56.95;101989.94;5030873;28;1726;-63
2021/10/02 07:55:22;;;;;;;;;;;;;;;20.98;56.78;101994.34;5046908;28;1604;-58
2021/10/02 07:57:48;;;;;;;;;;;;;;;21.02;56.15;101979.69;5018101;28;1059;-58
2021/10/02 08:00:18;;;;;;;;;;;;;;;21.05;56.41;101990.22;5048170;28;1764;-58
2021/10/02 08:02:45;;;;;;;;;;;;;;;21.00;56.76;101976.25;5047095;28;1587;-58
2021/10/02 08:05:12;;;;;;;;;;;;;;;21.06;56.39;101993.75;5031614;28;1790;-63
2021/10/02 08:07:40;;;;;;;;;;;;;;;21.02;56.98;101990.44;5019282;28;1605;-63
2021/10/02 08:10:07;;;;;;;;;;;;;;;21.05;56.12;101973.22;5028813;28;1898;-58
2021/10/02 08:12:33;;;;;;;;;;;;;;;21.06;56.44;101983.84;5047303;28;1487;-63
2021/10/02 08:15:00;;;;;;;;;;;;;;;21.08;56.16;101969.44;5047583;28;1499;-58
2021/10/02 08:17:29;;;;;;;;;;;;;;;21.12;56.67;101981.66;5039132;28;1747;-63
2021/10/02 08:19:59;;;;;;;;;;;;;;;21.10;56.71;101975.53;5045192;28;1652;-63
2021/10/02 08:22:27;;;;;;;;;;;;;;;21.10;55.97;101960.25;5028086;28;975;-58
2021/10/02 08:24:53;;;;;;;;;;;;;;;21.14;56.09;101974.31;5046909;28;1572;-63
2021/10/02 08:27:21;;;;;;;;;;;;;;;21.03;55.59;101930.31;5031178;28;1814;-63
2021/10/02 08:29:48;;;;;;;;;;;;;;;21.14;55.98;101953.66;5042211;28;1981;-58
2021/10/02 08:32:15;;;;;;;;;;;;;;;21.12;56.23;101970.91;5045366;28;1507;-61
2021/10/02 08:34:43;;;;;;;;;;;;;;;21.14;55.99;101955.50;5045269;28;1616;-63
2021/10/02 08:37:09;;;;;;;;;;;;;;;21.12;56.35;101961.00;5041463;28;1028;-58
2021/10/02 08:39:36;;;;;;;;;;;;;;;21.10;56.22;101962.09;5046204;28;1579;-57
2021/10/02 08:42:03;;;;;;;;;;;;;;;21.10;56.94;101970.16;5031161;28;1707;-63
2021/10/02 08:44:30;;;;;;;;;;;;;;;21.10;56.16;101960.25;5024870;28;1605;-63
2021/10/02 08:46:58;;;;;;;;;;;;;;;21.13;57.00;101983.34;5026681;28;1529;-63
2021/10/02 08:49:36;;;;;;;;;;;;;;;21.10;56.65;101972.84;5026611;28;1910;-58
2021/10/02 08:52:05;;;;;;;;;;;;;;;21.14;56.18;101955.50;5031494;28;1064;-58
2021/10/02 08:54:34;;;;;;;;;;;;;;;21.12;56.46;101944.00;5045648;28;1479;-58
2021/10/02 08:57:01;;;;;;;;;;;;;;;21.11;56.77;101942.28;5045175;28;1655;-63
2021/10/02 08:59:28;;;;;;;;;;;;;;;21.13;56.04;101943.91;5033161;28;1639;-58
2021/10/02 09:01:55;;;;;;;;;;;;;;;21.12;56.88;101944.00;5036253;28;1600;-58
2021/10/02 09:04:21;;;;;;;;;;;;;;;21.16;56.45;101961.63;5038353;28;1580;-63
2021/10/02 09:06:48;;;;;;;;;;;;;;;21.15;56.56;101951.81;5029304;28;1381;-58
2021/10/02 09:09:17;;;;;;;;;;;;;;;21.16;56.82;101956.22;5027930;28;1971;-58
2021/10/02 09:11:43;;;;;;;;;;;;;;;21.14;56.86;101945.59;5038376;28;1554;-63
2021/10/02 09:14:11;;;;;;;;;;;;;;;21.14;56.50;101947.44;5045319;28;1503;-63
2021/10/02 09:16:40;;;;;;;;;;;;;;;21.16;56.70;101945.47;5043424;28;930;-58
2021/10/02 09:19:08;;;;;;;;;;;;;;;21.16;56.31;101926.66;5024514;28;1730;-58
2021/10/02 09:21:41;;;;;;;;;;;;;;;21.16;56.62;101945.47;5021863;28;1720;-63
2021/10/02 09:24:19;;;;;;;;;;;;;;;21.16;56.55;101927.50;5041675;28;1608;-63
2021/10/02 09:26:47;;;;;;;;;;;;;;;21.20;56.09;101917.34;5031786;28;1689;-63
2021/10/02 09:29:15;;;;;;;;;;;;;;;21.23;56.09;101931.41;5036243;28;1914;-62
2021/10/02 09:31:41;;;;;;;;;;;;;;;21.22;56.15;101902.78;5044554;28;1448;-58
2021/10/02 09:34:20;;;;;;;;;;;;;;;21.20;56.06;101911.97;5044450;28;986;-58
2021/10/02 09:36:47;;;;;;;;;;;;;;;21.21;56.51;101911.00;5027214;28;1016;-59
2021/10/02 09:39:13;;;;;;;;;;;;;;;21.22;56.82;101926.16;5025708;28;1436;-63
2021/10/02 09:41:48;;;;;;;;;;;;;;;21.23;56.11;101922.50;5040832;28;1993;-58
2021/10/02 09:44:21;;;;;;;;;;;;;;;21.24;56.86;101926.88;5029720;28;1613;-63
2021/10/02 09:46:48;;;;;;;;;;;;;;;21.23;56.04;101903.66;5039966;28;1534;-63
2021/10/02 09:49:14;;;;;;;;;;;;;;;21.22;56.61;101921.63;5044976;28;1910;-58
2021/10/02 09:51:42;;;;;;;;;;;;;;;21.25;57.06;101910.63;5046722;28;1028;-58
2021/10/02 09:54:10;;;;;;;;;;;;;;;21.25;56.32;101891.81;5027883;28;1479;-63
2021/10/02 09:56:36;;;;;;;;;;;;;;;21.24;56.46;101908.06;5036585;28;1624;-62
2021/10/02 09:59:22;;;;;;;;;;;;;;;21.29;56.05;101891.53;5044326;28;1576;-58
2021/10/02 10:01:48;;;;;;;;;;;;;;;21.25;56.04;101882.88;5034588;28;1412;-63
2021/10/02 10:04:27;;;;;;;;;;;;;;;21.30;56.10;101882.50;5024792;28;1570;-58
2021/10/02 10:07:06;;;;;;;;;;;;;;;21.29;56.05;101884.34;5015938;28;911;-63
2021/10/02 10:09:33;;;;;;;;;;;;;;;21.32;56.00;101881.38;5041605;28;1902;-58
2021/10/02 10:12:00;;;;;;;;;;;;;;;21.30;56.46;101896.81;5036885;28;1502;-63
2021/10/02 10:14:28;;;;;;;;;;;;;;;21.32;56.68;101900.22;5043248;28;1523;-58
2021/10/02 10:16:57;;;;;;;;;;;;;;;21.32;56.94;101867.94;5015982;28;1062;-63
2021/10/02 10:19:24;;;;;;;;;;;;;;;21.31;56.57;101900.34;5045041;28;1755;-63
2021/10/02 10:22:07;;;;;;;;;;;;;;;21.34;55.93;101871.34;5022545;28;1758;-58
2021/10/02 10:24:34;;;;;;;;;;;;;;;21.34;56.32;101860.59;5044866;28;1739;-58
2021/10/02 10:27:01;;;;;;;;;;;;;;;21.35;56.10;101859.63;5043452;28;1577;-63
2021/10/02 10:29:41;;;;;;;;;;;;;;;21.36;55.92;101858.63;5043169;28;1984;-63
2021/10/02 10:32:09;;;;;;;;;;;;;;;21.32;56.00;101851.78;5029652;28;1863;-63
2021/10/02 10:34:37;;;;;;;;;;;;;;;21.31;56.26;101855.47;5034640;28;1538;-58
2021/10/02 10:37:04;;;;;;;;;;;;;;;21.25;56.61;101845.22;5041270;28;998;-63
2021/10/02 10:39:31;;;;;;;;;;;;;;;21.26;56.34;101853.13;5028739;28;1712;-63
2021/10/02 10:41:58;;;;;;;;;;;;;;;21.25;56.23;101850.59;5035304;28;1471;-58
2021/10/02 10:44:26;;;;;;;;;;;;;;;21.30;56.67;101856.44;5045377;28;1794;-63
2021/10/02 10:46:54;;;;;;;;;;;;;;;21.27;56.59;101843.25;5042445;28;1632;-58
2021/10/02 10:49:22;;;;;;;;;;;;;;;21.25;56.34;101842.53;5034885;28;2000;-58
2021/10/02 10:51:49;;;;;;;;;;;;;;;21.21;56.67;101849.97;5023396;28;995;-58
2021/10/02 10:54:17;;;;;;;;;;;;;;;21.25;56.53;101843.38;5022431;28;1531;-58
2021/10/02 10:56:45;;;;;;;;;;;;;;;21.31;56.57;101842.03;5024698;28;1455;-63
2021/10/02 10:59:17;;;;;;;;;;;;;;;21.32;56.74;101840.19;5034030;28;1624;-62
2021/10/02 11:01:44;;;;;;;;;;;;;;;21.29;56.67;101832.34;5035038;28;1581;-57
2021/10/02 11:04:25;;;;;;;;;;;;;;;21.29;57.13;101838.59;5028500;28;1435;-58
2021/10/02 11:06:55;;;;;;;;;;;;;;;21.24;57.17;101821.97;5040478;28;988;-58
2021/10/02 11:09:34;;;;;;;;;;;;;;;21.27;56.49;101827.13;5033929;28;1785;-63
2021/10/02 11:12:01;;;;;;;;;;;;;;;21.18;56.63;101811.72;5024261;28;1617;-63
2021/10/02 11:14:46;;;;;;;;;;;;;;;21.23;57.43;101812.22;5022587;28;1602;-63
2021/10/02 11:17:13;;;;;;;;;;;;;;;21.22;56.48;101808.63;5031726;28;1500;-57
2021/10/02 11:19:40;;;;;;;;;;;;;;;21.23;56.52;101822.97;5026095;28;1008;-63
2021/10/02 11:22:30;;;;;;;;;;;;;;;21.23;56.97;101809.50;5022690;28;1853;-58
2021/10/02 11:24:59;;;;;;;;;;;;;;;21.28;56.49;101806.44;5003602;28;1820;-63
2021/10/02 11:27:26;;;;;;;;;;;;;;;21.24;56.63;101811.22;5022162;28;1443;-63
2021/10/02 11:29:53;;;;;;;;;;;;;;;21.29;56.52;101794.69;5028391;28;1906;-57
2021/10/02 11:32:26;;;;;;;;;;;;;;;21.30;57.24;101799.09;5037026;28;1420;-58
2021/10/02 11:35:23;;;;;;;;;;;;;;;21.31;56.67;101801.66;5032921;28;1577;-63
2021/10/02 11:37:51;;;;;;;;;;;;;;;21.26;57.01;101785.03;4993818;28;978;-63
2021/10/02 11:40:37;;;;;;;;;;;;;;;21.28;57.59;101793.00;5033086;28;2033;-58
2021/10/02 11:43:22;;;;;;;;;;;;;;;21.30;56.83;101794.56;5024387;28;1573;-63
2021/10/02 11:45:55;;;;;;;;;;;;;;;21.26;56.89;101790.41;5041362;28;1783;-63
2021/10/02 11:48:31;;;;;;;;;;;;;;;21.27;56.50;101778.69;5038460;28;1499;-63
2021/10/02 11:51:12;;;;;;;;;;;;;;;21.29;56.78;101786.63;5024741;28;1902;-63
2021/10/02 11:53:42;;;;;;;;;;;;;;;21.26;57.15;101793.09;5036548;28;1588;-63
2021/10/02 11:56:15;;;;;;;;;;;;;;;21.28;56.92;101769.63;5037197;28;1499;-58
2021/10/02 11:58:44;;;;;;;;;;;;;;;21.28;57.00;101780.38;5027367;28;1615;-58
2021/10/02 12:01:16;;;;;;;;;;;;;;;21.23;57.14;101771.84;5039634;28;1581;-63
2021/10/02 12:03:42;;;;;;;;;;;;;;;21.22;56.57;101772.81;5027074;28;1577;-58
2021/10/02 12:06:09;;;;;;;;;;;;;;;21.24;56.79;101769.00;5043074;28;930;-63
2021/10/02 12:08:35;;;;;;;;;;;;;;;21.25;56.85;101776.13;5035548;28;1774;-58
2021/10/02 12:11:03;;;;;;;;;;;;;;;21.25;57.65;101767.19;5025703;28;1986;-57
2021/10/02 12:13:30;;;;;;;;;;;;;;;21.27;57.58;101773.31;5027353;28;1577;-62
2021/10/02 12:16:02;;;;;;;;;;;;;;;21.25;56.68;101772.59;5029258;28;990;-58
2021/10/02 12:18:45;;;;;;;;;;;;;;;21.27;57.65;101767.94;5030475;28;1719;-63
2021/10/02 12:21:13;;;;;;;;;;;;;;;21.26;56.81;101755.44;5027074;28;1542;-59
2021/10/02 12:23:49;;;;;;;;;;;;;;;21.26;56.91;101760.81;5034446;28;1877;-58
2021/10/02 12:26:16;;;;;;;;;;;;;;;21.25;57.03;101753.75;5045066;28;1599;-63
2021/10/02 12:28:43;;;;;;;;;;;;;;;21.30;57.69;101770.34;5028760;28;1515;-63
2021/10/02 12:31:10;;;;;;;;;;;;;;;21.28;56.73;101758.88;5031898;28;1981;-58
2021/10/02 12:33:37;;;;;;;;;;;;;;;21.30;57.36;101767.66;5043286;28;1564;-63
2021/10/02 12:36:04;;;;;;;;;;;;;;;21.26;57.51;101755.44;5028189;28;1069;-63
2021/10/02 12:38:39;;;;;;;;;;;;;;;21.26;56.81;101760.81;5038826;28;1747;-58
2021/10/02 12:41:05;;;;;;;;;;;;;;;21.27;56.81;101765.25;5034942;28;1527;-58
2021/10/02 12:43:32;;;;;;;;;;;;;;;21.28;57.49;101753.47;5046700;28;1572;-63
2021/10/02 12:45:59;;;;;;;;;;;;;;;21.25;57.11;101748.38;5051299;28;1576;-63
2021/10/02 12:48:27;;;;;;;;;;;;;;;21.28;57.73;101758.03;5045330;28;1576;-63
2021/10/02 12:50:54;;;;;;;;;;;;;;;21.25;56.93;101749.22;5026395;28;1977;-63
2021/10/02 12:53:21;;;;;;;;;;;;;;;21.26;57.97;101750.06;5038747;28;1604;-59
2021/10/02 12:55:48;;;;;;;;;;;;;;;21.25;57.36;101751.06;5047211;28;1479;-63
2021/10/02 12:58:15;;;;;;;;;;;;;;;21.26;56.64;101745.53;5045915;28;1636;-63
2021/10/02 13:00:41;;;;;;;;;;;;;;;21.29;57.73;101744.44;5044925;28;1416;-58
2021/10/02 13:03:09;;;;;;;;;;;;;;;21.24;57.48;101742.13;5028090;28;1392;-63
2021/10/02 13:05:38;;;;;;;;;;;;;;;21.21;57.20;101741.53;5040138;28;1464;-58
2021/10/02 13:08:05;;;;;;;;;;;;;;;21.26;56.98;101752.75;5054360;28;1750;-58
2021/10/02 13:10:36;;;;;;;;;;;;;;;21.25;57.86;101745.69;5040334;28;1977;-58
2021/10/02 13:13:03;;;;;;;;;;;;;;;21.24;56.79;101749.34;5046230;28;990;-58
2021/10/02 13:15:31;;;;;;;;;;;;;;;21.24;56.92;101736.72;5029807;28;1782;-58
2021/10/02 13:18:02;;;;;;;;;;;;;;;21.21;57.53;101730.78;5027198;28;1601;-58
2021/10/02 13:20:29;;;;;;;;;;;;;;;21.23;57.94;101753.88;5029112;28;1495;-59
2021/10/02 13:23:03;;;;;;;;;;;;;;;21.18;57.91;101750.69;5046152;28;1499;-58
2021/10/02 13:25:30;;;;;;;;;;;;;;;21.25;57.91;101767.19;5037992;28;1627;-63
2021/10/02 13:27:58;;;;;;;;;;;;;;;21.19;57.68;101751.56;5026700;28;1601;-63
2021/10/02 13:30:30;;;;;;;;;;;;;;;21.23;57.46;101739.56;5047366;28;1906;-63
2021/10/02 13:32:59;;;;;;;;;;;;;;;21.18;57.41;101757.91;5027837;28;1560;-58
2021/10/02 13:35:26;;;;;;;;;;;;;;;21.23;57.24;101750.34;5022288;28;1678;-58
2021/10/02 13:37:53;;;;;;;;;;;;;;;21.17;57.57;101750.81;5034442;28;1676;-63
2021/10/02 13:40:25;;;;;;;;;;;;;;;21.19;57.04;101738.13;5026604;28;1566;-63
2021/10/02 13:42:52;;;;;;;;;;;;;;;21.18;57.64;101750.69;5024998;28;1068;-63
2021/10/02 13:45:24;;;;;;;;;;;;;;;21.18;57.06;101752.53;5046349;28;1769;-63
2021/10/02 13:47:55;;;;;;;;;;;;;;;21.19;58.17;101754.25;5028573;28;1764;-63